createdAt,value
2023-02-09T00:01:20.602Z,102852.48
2023-02-09T00:03:47.725Z,102854.95
2023-02-09T00:06:18.320Z,102853.23
2023-02-09T00:08:45.810Z,102854.42
2023-02-09T00:11:47.700Z,102855.59
2023-02-09T00:14:18.216Z,102851.98
2023-02-09T00:16:47.276Z,102853.05
2023-02-09T00:19:15.001Z,102853.85
2023-02-09T00:21:41.952Z,102851.54
2023-02-09T00:24:10.983Z,102846.98
2023-02-09T00:26:39.000Z,102846.71
2023-02-09T00:29:07.116Z,102844.63
2023-02-09T00:31:34.512Z,102842.40
2023-02-09T00:34:02.127Z,102838.58
2023-02-09T00:36:29.691Z,102835.40
2023-02-09T00:38:56.848Z,102835.69
2023-02-09T00:41:42.534Z,102830.34
2023-02-09T00:44:13.054Z,102829.50
2023-02-09T00:46:39.898Z,102824.42
2023-02-09T00:49:07.202Z,102824.02
2023-02-09T00:51:35.038Z,102832.73
2023-02-09T00:54:03.049Z,102825.48
2023-02-09T00:56:29.918Z,102820.53
2023-02-09T00:58:56.809Z,102811.40
2023-02-09T01:01:25.354Z,102806.40
2023-02-09T01:03:53.167Z,102805.84
2023-02-09T01:06:20.878Z,102802.30
2023-02-09T01:08:47.855Z,102801.73
2023-02-09T01:11:16.914Z,102800.13
2023-02-09T01:13:45.778Z,102796.98
2023-02-09T01:16:15.973Z,102791.90
2023-02-09T01:18:44.065Z,102785.33
2023-02-09T01:21:13.678Z,102777.25
2023-02-09T01:23:40.688Z,102769.10
2023-02-09T01:26:09.523Z,102765.23
2023-02-09T01:28:37.598Z,102766.41
2023-02-09T01:31:06.416Z,102768.42
2023-02-09T01:33:33.673Z,102762.52
2023-02-09T01:36:04.901Z,102759.09
2023-02-09T01:38:31.847Z,102749.87
2023-02-09T01:40:58.804Z,102743.31
2023-02-09T01:43:25.647Z,102740.77
2023-02-09T01:45:57.108Z,102740.71
2023-02-09T01:48:28.761Z,102744.21
2023-02-09T01:51:00.269Z,102740.50
2023-02-09T01:53:28.299Z,102734.36
2023-02-09T01:56:02.403Z,102734.94
2023-02-09T01:58:30.069Z,102730.63
2023-02-09T02:00:59.609Z,102720.33
2023-02-09T02:03:29.599Z,102719.58
2023-02-09T02:05:59.006Z,102721.71
2023-02-09T02:08:38.140Z,102720.23
2023-02-09T02:11:06.208Z,102718.46
2023-02-09T02:13:33.053Z,102716.54
2023-02-09T02:16:04.982Z,102704.71
2023-02-09T02:18:43.954Z,102698.17
2023-02-09T02:21:18.990Z,102697.16
2023-02-09T02:24:04.758Z,102690.51
2023-02-09T02:26:50.247Z,102689.30
2023-02-09T02:29:32.260Z,102680.30
2023-02-09T02:32:04.878Z,102679.67
2023-02-09T02:34:50.984Z,102675.67
2023-02-09T02:37:32.986Z,102668.86
2023-02-09T02:40:22.850Z,102665.67
2023-02-09T02:43:16.303Z,102661.46
2023-02-09T02:45:45.609Z,102658.77
2023-02-09T02:48:33.133Z,102660.00
2023-02-09T02:51:05.030Z,102654.27
2023-02-09T02:53:36.132Z,102653.29
2023-02-09T02:56:15.470Z,102650.82
2023-02-09T02:58:45.708Z,102646.27
2023-02-09T03:01:17.589Z,102641.32
2023-02-09T03:03:46.551Z,102633.42
2023-02-09T03:06:14.945Z,102639.11
2023-02-09T03:08:57.045Z,102635.62
2023-02-09T03:11:30.236Z,102638.12
2023-02-09T03:14:06.403Z,102637.95
2023-02-09T03:17:13.444Z,102634.21
2023-02-09T03:19:56.460Z,102625.15
2023-02-09T03:22:33.041Z,102618.20
2023-02-09T03:25:10.231Z,102613.17
2023-02-09T03:27:41.664Z,102613.58
2023-02-09T03:30:12.641Z,102613.42
2023-02-09T03:32:42.530Z,102610.50
2023-02-09T03:35:12.907Z,102605.52
2023-02-09T03:37:39.908Z,102604.81
2023-02-09T03:40:07.786Z,102607.48
2023-02-09T03:42:34.732Z,102608.46
2023-02-09T03:45:02.085Z,102608.09
2023-02-09T03:47:30.952Z,102609.59
2023-02-09T03:49:58.573Z,102610.23
2023-02-09T03:52:26.094Z,102610.38
2023-02-09T03:54:53.064Z,102613.44
2023-02-09T03:57:19.882Z,102611.97
2023-02-09T03:59:46.753Z,102608.06
2023-02-09T04:02:13.826Z,102608.80
2023-02-09T04:04:40.661Z,102605.49
2023-02-09T04:07:07.822Z,102605.38
2023-02-09T04:09:34.883Z,102604.06
2023-02-09T04:12:01.740Z,102604.46
2023-02-09T04:14:28.662Z,102605.57
2023-02-09T04:16:55.645Z,102603.23
2023-02-09T04:19:22.600Z,102599.89
2023-02-09T04:21:49.507Z,102597.59
2023-02-09T04:24:26.339Z,102595.19
2023-02-09T04:26:53.337Z,102596.86
2023-02-09T04:29:20.177Z,102601.03
2023-02-09T04:31:47.150Z,102603.35
2023-02-09T04:34:14.010Z,102603.35
2023-02-09T04:36:41.014Z,102602.11
2023-02-09T04:39:08.007Z,102598.70
2023-02-09T04:41:34.939Z,102600.71
2023-02-09T04:44:01.808Z,102602.77
2023-02-09T04:46:28.651Z,102598.37
2023-02-09T04:48:55.486Z,102599.93
2023-02-09T04:51:28.035Z,102604.71
2023-02-09T04:54:00.641Z,102601.84
2023-02-09T04:56:27.624Z,102605.35
2023-02-09T04:59:13.374Z,102604.43
2023-02-09T05:01:40.319Z,102602.47
2023-02-09T05:04:07.167Z,102606.34
2023-02-09T05:06:34.120Z,102605.05
2023-02-09T05:09:00.973Z,102605.51
2023-02-09T05:11:27.829Z,102600.45
2023-02-09T05:13:56.198Z,102594.82
2023-02-09T05:16:23.185Z,102591.42
2023-02-09T05:18:51.260Z,102588.98
2023-02-09T05:21:18.483Z,102587.58
2023-02-09T05:23:45.435Z,102585.72
2023-02-09T05:26:12.392Z,102586.86
2023-02-09T05:28:39.238Z,102587.65
2023-02-09T05:31:06.276Z,102587.17
2023-02-09T05:33:33.337Z,102587.01
2023-02-09T05:36:00.293Z,102588.50
2023-02-09T05:38:27.235Z,102587.14
2023-02-09T05:40:54.106Z,102591.20
2023-02-09T05:43:20.959Z,102592.63
2023-02-09T05:45:48.212Z,102590.60
2023-02-09T05:48:15.247Z,102585.58
2023-02-09T05:50:42.201Z,102582.67
2023-02-09T05:53:09.575Z,102582.46
2023-02-09T05:55:36.991Z,102580.13
2023-02-09T05:58:03.968Z,102582.13
2023-02-09T06:00:30.935Z,102578.20
2023-02-09T06:03:03.918Z,102574.00
2023-02-09T06:05:30.923Z,102571.66
2023-02-09T06:07:58.309Z,102571.72
2023-02-09T06:10:25.368Z,102574.91
2023-02-09T06:12:52.312Z,102572.45
2023-02-09T06:15:19.240Z,102570.59
2023-02-09T06:17:46.621Z,102568.99
2023-02-09T06:20:13.585Z,102566.31
2023-02-09T06:22:41.047Z,102567.40
2023-02-09T06:25:11.165Z,102569.41
2023-02-09T06:27:38.117Z,102572.30
2023-02-09T06:30:06.095Z,102570.32
2023-02-09T06:32:33.033Z,102571.95
2023-02-09T06:35:00.001Z,102568.80
2023-02-09T06:37:27.043Z,102571.13
2023-02-09T06:39:53.986Z,102566.57
2023-02-09T06:42:20.960Z,102564.83
2023-02-09T06:44:47.873Z,102577.77
2023-02-09T06:47:14.738Z,102578.23
2023-02-09T06:49:41.790Z,102572.83
2023-02-09T06:52:08.743Z,102569.46
2023-02-09T06:54:35.622Z,102571.03
2023-02-09T06:57:02.536Z,102571.31
2023-02-09T06:59:29.368Z,102569.08
2023-02-09T07:01:56.474Z,102571.40
2023-02-09T07:04:23.390Z,102569.38
2023-02-09T07:06:50.753Z,102567.20
2023-02-09T07:09:17.800Z,102559.25
2023-02-09T07:11:44.755Z,102553.95
2023-02-09T07:14:11.708Z,102552.81
2023-02-09T07:16:38.763Z,102548.83
2023-02-09T07:19:05.713Z,102554.81
2023-02-09T07:21:32.663Z,102549.59
2023-02-09T07:23:59.712Z,102552.32
2023-02-09T07:26:26.657Z,102551.05
2023-02-09T07:28:53.515Z,102555.98
2023-02-09T07:31:20.556Z,102556.41
2023-02-09T07:33:47.610Z,102551.42
2023-02-09T07:36:16.643Z,102550.48
2023-02-09T07:38:44.283Z,102554.65
2023-02-09T07:41:19.004Z,102544.30
2023-02-09T07:43:46.474Z,102542.41
2023-02-09T07:46:17.955Z,102546.48
2023-02-09T07:48:45.388Z,102541.50
2023-02-09T07:51:20.305Z,102538.38
2023-02-09T07:53:48.182Z,102536.05
2023-02-09T07:56:15.126Z,102538.02
2023-02-09T07:58:42.078Z,102539.30
2023-02-09T08:01:12.151Z,102539.59
2023-02-09T08:03:41.000Z,102534.37
2023-02-09T08:06:45.400Z,102530.66
2023-02-09T08:09:16.714Z,102531.50
2023-02-09T08:11:55.824Z,102529.75
2023-02-09T08:14:28.966Z,102527.48
2023-02-09T08:17:18.940Z,102529.11
2023-02-09T08:19:48.666Z,102533.47
2023-02-09T08:22:16.121Z,102531.73
2023-02-09T08:24:43.376Z,102532.37
2023-02-09T08:27:10.949Z,102529.42
2023-02-09T08:29:37.996Z,102523.23
2023-02-09T08:32:05.286Z,102520.84
2023-02-09T08:34:32.314Z,102516.77
2023-02-09T08:36:59.212Z,102513.28
2023-02-09T08:39:26.214Z,102510.56
2023-02-09T08:41:53.278Z,102501.77
2023-02-09T08:44:20.310Z,102500.75
2023-02-09T08:46:47.814Z,102503.27
2023-02-09T08:49:14.933Z,102505.05
2023-02-09T08:51:41.990Z,102506.65
2023-02-09T08:54:09.147Z,102507.67
2023-02-09T08:56:36.099Z,102508.70
2023-02-09T08:59:02.936Z,102508.46
2023-02-09T09:01:30.067Z,102503.41
2023-02-09T09:03:57.756Z,102499.32
2023-02-09T09:06:24.812Z,102498.65
2023-02-09T09:08:51.876Z,102499.95
2023-02-09T09:11:18.922Z,102500.64
2023-02-09T09:13:45.887Z,102498.36
2023-02-09T09:16:21.679Z,102490.14
2023-02-09T09:18:49.454Z,102488.14
2023-02-09T09:21:18.729Z,102486.00
2023-02-09T09:23:47.093Z,102488.70
2023-02-09T09:26:14.973Z,102488.02
2023-02-09T09:28:42.312Z,102482.44
2023-02-09T09:31:12.561Z,102486.81
2023-02-09T09:33:40.515Z,102485.16
2023-02-09T09:36:08.290Z,102482.55
2023-02-09T09:38:37.514Z,102482.59
2023-02-09T09:41:06.491Z,102478.65
2023-02-09T09:43:37.664Z,102475.63
2023-02-09T09:46:08.692Z,102471.21
2023-02-09T09:48:46.161Z,102469.17
2023-02-09T09:51:20.272Z,102469.94
2023-02-09T09:53:51.539Z,102463.95
2023-02-09T09:56:21.436Z,102459.67
2023-02-09T09:58:50.257Z,102455.03
2023-02-09T10:01:21.401Z,102449.52
2023-02-09T10:03:48.528Z,102446.96
2023-02-09T10:06:23.094Z,102440.57
2023-02-09T10:09:00.812Z,102438.08
2023-02-09T10:11:43.708Z,102438.65
2023-02-09T10:14:10.814Z,102432.58
2023-02-09T10:16:40.584Z,102426.54
2023-02-09T10:19:26.862Z,102422.75
2023-02-09T10:21:55.028Z,102421.13
2023-02-09T10:24:24.197Z,102412.70
2023-02-09T10:27:15.194Z,102407.02
2023-02-09T10:29:42.499Z,102398.13
2023-02-09T10:32:17.286Z,102393.13
2023-02-09T10:34:57.027Z,102388.46
2023-02-09T10:37:38.403Z,102390.64
2023-02-09T10:40:19.273Z,102389.77
2023-02-09T10:43:00.044Z,102387.94
2023-02-09T10:45:39.907Z,102380.73
2023-02-09T10:48:12.973Z,102374.72
2023-02-09T10:51:07.632Z,102370.17
2023-02-09T10:54:03.852Z,102361.52
2023-02-09T10:56:50.184Z,102352.10
2023-02-09T10:59:23.525Z,102349.32
2023-02-09T11:02:02.258Z,102347.83
2023-02-09T11:04:41.266Z,102339.09
2023-02-09T11:07:15.141Z,102336.40
2023-02-09T11:09:47.476Z,102330.23
2023-02-09T11:12:15.256Z,102324.35
2023-02-09T11:14:43.325Z,102319.26
2023-02-09T11:17:40.303Z,102315.56
2023-02-09T11:20:32.322Z,102307.98
2023-02-09T11:23:02.018Z,102303.94
2023-02-09T11:25:45.351Z,102300.27
2023-02-09T11:28:15.637Z,102295.17
2023-02-09T11:31:01.642Z,102293.23
2023-02-09T11:33:56.629Z,102293.02
2023-02-09T11:36:23.480Z,102290.52
2023-02-09T11:38:59.224Z,102288.79
2023-02-09T11:41:52.059Z,102288.42
2023-02-09T11:44:38.154Z,102284.14
2023-02-09T11:47:15.044Z,102279.17
2023-02-09T11:49:48.847Z,102274.27
2023-02-09T11:52:22.951Z,102266.67
2023-02-09T11:54:56.180Z,102258.91
2023-02-09T11:57:35.404Z,102252.52
2023-02-09T12:00:06.295Z,102253.00
2023-02-09T12:02:42.720Z,102246.42
2023-02-09T12:05:14.554Z,102243.39
2023-02-09T12:08:00.428Z,102234.97
2023-02-09T12:10:36.524Z,102233.11
2023-02-09T12:13:59.619Z,102228.47
2023-02-09T12:16:33.379Z,102224.10
2023-02-09T12:19:01.914Z,102225.05
2023-02-09T12:21:35.100Z,102223.88
2023-02-09T12:24:02.578Z,102220.29
2023-02-09T12:26:40.359Z,102215.65
2023-02-09T12:29:25.323Z,102212.21
2023-02-09T12:32:04.643Z,102208.62
2023-02-09T12:34:39.768Z,102203.15
2023-02-09T12:37:09.810Z,102194.29
2023-02-09T12:39:36.657Z,102187.47
2023-02-09T12:42:03.501Z,102186.25
2023-02-09T12:44:30.351Z,102182.06
2023-02-09T12:46:58.425Z,102182.81
2023-02-09T12:49:28.248Z,102177.98
2023-02-09T12:52:00.939Z,102175.05
2023-02-09T12:54:49.891Z,102172.46
2023-02-09T12:57:17.063Z,102166.53
2023-02-09T12:59:50.424Z,102162.52
2023-02-09T13:02:29.585Z,102157.79
2023-02-09T13:05:11.793Z,102154.87
2023-02-09T13:07:58.253Z,102160.45
2023-02-09T13:10:43.070Z,102159.52
2023-02-09T13:13:12.728Z,102153.10
2023-02-09T13:16:03.961Z,102158.09
2023-02-09T13:18:36.544Z,102156.80
2023-02-09T13:21:28.315Z,102148.77
2023-02-09T13:24:04.552Z,102147.11
2023-02-09T13:26:33.548Z,102144.58
2023-02-09T13:29:20.338Z,102141.31
2023-02-09T13:32:20.622Z,102134.04
2023-02-09T13:35:12.318Z,102126.57
2023-02-09T13:37:54.413Z,102122.50
2023-02-09T13:40:35.425Z,102126.34
2023-02-09T13:43:11.332Z,102125.95
2023-02-09T13:45:53.785Z,102123.52
2023-02-09T13:48:29.877Z,102121.81
2023-02-09T13:50:59.415Z,102118.91
2023-02-09T13:53:28.513Z,102114.56
2023-02-09T13:56:00.161Z,102110.27
2023-02-09T13:58:35.271Z,102108.56
2023-02-09T14:01:08.248Z,102109.65
2023-02-09T14:04:17.810Z,102109.86
2023-02-09T14:07:17.414Z,102108.66
2023-02-09T14:09:51.836Z,102103.67
2023-02-09T14:12:49.277Z,102096.02
2023-02-09T14:15:35.252Z,102088.41
2023-02-09T14:18:02.204Z,102087.67
2023-02-09T14:20:29.152Z,102084.48
2023-02-09T14:23:01.221Z,102082.34
2023-02-09T14:25:30.128Z,102083.98
2023-02-09T14:27:58.437Z,102080.14
2023-02-09T14:30:32.290Z,102074.56
2023-02-09T14:33:03.572Z,102071.43
2023-02-09T14:35:41.462Z,102073.08
2023-02-09T14:38:42.647Z,102071.20
2023-02-09T14:41:18.843Z,102070.55
2023-02-09T14:43:45.896Z,102071.71
2023-02-09T14:46:12.788Z,102067.80
2023-02-09T14:48:40.108Z,102071.80
2023-02-09T14:51:16.378Z,102068.34
2023-02-09T14:53:44.152Z,102060.67
2023-02-09T14:56:24.210Z,102057.39
2023-02-09T14:58:52.274Z,102057.20
2023-02-09T15:01:21.520Z,102051.56
2023-02-09T15:03:48.623Z,102053.20
2023-02-09T15:06:15.978Z,102048.85
2023-02-09T15:08:43.142Z,102043.64
2023-02-09T15:11:42.489Z,102046.27
2023-02-09T15:14:10.940Z,102044.46
2023-02-09T15:16:37.967Z,102044.45
2023-02-09T15:19:13.405Z,102046.56
2023-02-09T15:21:40.356Z,102045.46
2023-02-09T15:24:07.318Z,102045.29
2023-02-09T15:26:36.777Z,102044.38
2023-02-09T15:29:11.269Z,102047.80
2023-02-09T15:31:38.310Z,102047.67
2023-02-09T15:34:06.418Z,102049.19
2023-02-09T15:36:34.025Z,102050.02
2023-02-09T15:39:00.952Z,102051.18
2023-02-09T15:41:47.478Z,102050.35
2023-02-09T15:44:36.376Z,102047.69
2023-02-09T15:47:22.469Z,102046.30
2023-02-09T15:49:49.564Z,102040.39
2023-02-09T15:52:18.329Z,102036.19
2023-02-09T15:54:45.927Z,102030.31
2023-02-09T15:57:14.923Z,102032.25
2023-02-09T15:59:42.730Z,102025.63
2023-02-09T16:02:14.514Z,102020.33
2023-02-09T16:04:41.589Z,102019.38
2023-02-09T16:07:24.214Z,102017.77
2023-02-09T16:09:52.081Z,102018.66
2023-02-09T16:12:19.320Z,102025.65
2023-02-09T16:14:46.483Z,102026.31
2023-02-09T16:17:13.631Z,102025.21
2023-02-09T16:19:40.822Z,102023.14
2023-02-09T16:22:08.821Z,102020.61
2023-02-09T16:24:44.425Z,102020.14
2023-02-09T16:27:25.262Z,102016.84
2023-02-09T16:29:53.556Z,102015.82
2023-02-09T16:32:22.880Z,102020.19
2023-02-09T16:34:50.692Z,102018.99
2023-02-09T16:37:22.662Z,102016.76
2023-02-09T16:39:49.567Z,102015.50
2023-02-09T16:42:17.140Z,102015.30
2023-02-09T16:44:44.190Z,102013.33
2023-02-09T16:47:23.698Z,102008.42
2023-02-09T16:49:56.917Z,102003.38
2023-02-09T16:52:26.946Z,101996.91
2023-02-09T16:54:57.564Z,101993.80
2023-02-09T16:57:26.386Z,101993.81
2023-02-09T16:59:54.383Z,101991.31
2023-02-09T17:02:49.719Z,101989.58
2023-02-09T17:05:29.138Z,101984.98
2023-02-09T17:08:02.948Z,101984.68
2023-02-09T17:10:34.270Z,101982.96
2023-02-09T17:13:02.236Z,101986.38
2023-02-09T17:15:32.248Z,101991.85
2023-02-09T17:18:06.341Z,101994.26
2023-02-09T17:20:46.593Z,101993.40
2023-02-09T17:23:23.252Z,101993.41
2023-02-09T17:25:56.216Z,101991.04
2023-02-09T17:28:31.017Z,101988.03
2023-02-09T17:31:10.713Z,101984.83
2023-02-09T17:33:39.747Z,101978.70
2023-02-09T17:36:29.068Z,101972.30
2023-02-09T17:38:59.054Z,101971.70
2023-02-09T17:41:31.651Z,101970.21
2023-02-09T17:44:22.272Z,101968.73
2023-02-09T17:46:54.334Z,101966.12
2023-02-09T17:49:21.272Z,101961.95
2023-02-09T17:51:49.159Z,101958.88
2023-02-09T17:54:19.736Z,101954.04
2023-02-09T17:56:46.890Z,101949.23
2023-02-09T17:59:15.105Z,101945.02
2023-02-09T18:01:45.573Z,101943.09
2023-02-09T18:04:21.149Z,101937.73
2023-02-09T18:06:48.837Z,101931.48
2023-02-09T18:09:15.843Z,101926.77
2023-02-09T18:11:45.607Z,101922.53
2023-02-09T18:14:13.252Z,101921.88
2023-02-09T18:16:44.094Z,101922.02
2023-02-09T18:19:11.927Z,101922.79
2023-02-09T18:21:45.904Z,101922.90
2023-02-09T18:24:13.988Z,101921.66
2023-02-09T18:26:40.938Z,101921.91
2023-02-09T18:29:07.858Z,101917.30
2023-02-09T18:31:36.356Z,101917.11
2023-02-09T18:34:04.365Z,101915.15
2023-02-09T18:36:33.070Z,101912.88
2023-02-09T18:39:00.509Z,101908.21
2023-02-09T18:41:28.374Z,101908.83
2023-02-09T18:43:56.188Z,101907.22
2023-02-09T18:46:27.351Z,101909.17
2023-02-09T18:48:54.833Z,101908.92
2023-02-09T18:51:22.553Z,101902.65
2023-02-09T18:53:51.430Z,101901.47
2023-02-09T18:56:22.685Z,101901.38
2023-02-09T18:58:50.723Z,101895.91
2023-02-09T19:01:21.986Z,101889.58
2023-02-09T19:03:50.992Z,101889.17
2023-02-09T19:06:20.584Z,101882.71
2023-02-09T19:08:50.580Z,101878.70
2023-02-09T19:11:20.338Z,101876.56
2023-02-09T19:14:07.710Z,101880.70
2023-02-09T19:16:36.804Z,101884.98
2023-02-09T19:19:04.736Z,101883.98
2023-02-09T19:21:33.062Z,101873.40
2023-02-09T19:24:18.924Z,101867.98
2023-02-09T19:26:49.076Z,101869.64
2023-02-09T19:29:20.165Z,101869.35
2023-02-09T19:31:48.971Z,101867.65
2023-02-09T19:34:16.283Z,101864.45
2023-02-09T19:36:43.638Z,101862.52
2023-02-09T19:39:12.314Z,101854.23
2023-02-09T19:41:39.458Z,101848.95
2023-02-09T19:44:07.250Z,101847.46
2023-02-09T19:46:35.489Z,101843.88
2023-02-09T19:49:02.853Z,101851.02
2023-02-09T19:51:29.980Z,101845.40
2023-02-09T19:53:57.053Z,101850.81
2023-02-09T19:56:24.012Z,101851.26
2023-02-09T19:58:50.942Z,101848.95
2023-02-09T20:01:18.756Z,101842.80
2023-02-09T20:03:45.874Z,101837.79
2023-02-09T20:06:14.583Z,101833.75
2023-02-09T20:08:42.601Z,101828.17
2023-02-09T20:11:13.765Z,101829.09
2023-02-09T20:13:43.232Z,101824.77
2023-02-09T20:16:11.865Z,101815.23
2023-02-09T20:18:38.821Z,101810.20
2023-02-09T20:21:09.954Z,101803.85
2023-02-09T20:23:38.246Z,101798.70
2023-02-09T20:26:17.172Z,101795.77
2023-02-09T20:28:44.154Z,101803.39
2023-02-09T20:31:11.575Z,101802.55
2023-02-09T20:33:39.361Z,101802.92
2023-02-09T20:36:08.688Z,101803.19
2023-02-09T20:38:37.404Z,101802.33
2023-02-09T20:41:09.617Z,101804.17
2023-02-09T20:43:56.743Z,101802.83
2023-02-09T20:46:44.144Z,101799.38
2023-02-09T20:49:14.322Z,101791.63
2023-02-09T20:51:41.271Z,101787.30
2023-02-09T20:54:08.525Z,101795.17
2023-02-09T20:56:36.004Z,101800.17
2023-02-09T20:59:04.763Z,101800.82
2023-02-09T21:01:31.995Z,101798.80
2023-02-09T21:04:00.491Z,101799.10
2023-02-09T21:06:27.795Z,101798.37
2023-02-09T21:08:54.854Z,101796.93
2023-02-09T21:11:21.863Z,101798.60
2023-02-09T21:13:48.895Z,101797.27
2023-02-09T21:16:16.343Z,101798.53
2023-02-09T21:18:45.853Z,101799.69
2023-02-09T21:21:17.424Z,101800.88
2023-02-09T21:23:45.697Z,101801.98
2023-02-09T21:26:17.313Z,101802.52
2023-02-09T21:28:45.533Z,101805.69
2023-02-09T21:31:16.505Z,101798.95
2023-02-09T21:33:44.151Z,101798.40
2023-02-09T21:36:11.196Z,101797.70
2023-02-09T21:38:41.930Z,101796.00
2023-02-09T21:41:41.934Z,101792.19
2023-02-09T21:44:13.185Z,101794.45
2023-02-09T21:46:40.242Z,101790.02
2023-02-09T21:49:07.804Z,101786.09
2023-02-09T21:51:35.670Z,101782.23
2023-02-09T21:54:04.975Z,101777.09
2023-02-09T21:56:32.034Z,101774.69
2023-02-09T21:58:59.079Z,101774.05
2023-02-09T22:01:25.982Z,101769.77
2023-02-09T22:03:57.405Z,101771.23
2023-02-09T22:06:26.096Z,101770.35
2023-02-09T22:08:54.251Z,101765.54
2023-02-09T22:11:21.417Z,101764.67
2023-02-09T22:13:48.658Z,101758.75
2023-02-09T22:16:20.945Z,101758.40
2023-02-09T22:18:48.306Z,101771.34
2023-02-09T22:21:15.513Z,101772.95
2023-02-09T22:23:42.610Z,101774.48
2023-02-09T22:26:10.321Z,101784.60
2023-02-09T22:28:37.320Z,101786.94
2023-02-09T22:31:13.163Z,101783.41
2023-02-09T22:33:40.771Z,101780.59
2023-02-09T22:36:18.836Z,101779.98
2023-02-09T22:38:46.101Z,101777.92
2023-02-09T22:41:22.550Z,101776.51
2023-02-09T22:43:56.449Z,101774.77
2023-02-09T22:46:26.257Z,101761.88
2023-02-09T22:48:55.829Z,101761.60
2023-02-09T22:51:25.205Z,101766.80
2023-02-09T22:53:52.591Z,101765.45
2023-02-09T22:56:20.065Z,101762.58
2023-02-09T22:58:47.465Z,101762.48
2023-02-09T23:01:14.412Z,101759.80
2023-02-09T23:03:42.144Z,101758.31
2023-02-09T23:06:13.052Z,101757.04
2023-02-09T23:08:40.115Z,101752.66
2023-02-09T23:11:11.067Z,101750.10
2023-02-09T23:13:39.042Z,101749.13
2023-02-09T23:16:12.503Z,101745.70
2023-02-09T23:18:40.915Z,101746.19
2023-02-09T23:21:08.379Z,101748.72
2023-02-09T23:23:35.534Z,101750.14
2023-02-09T23:26:02.993Z,101748.23
2023-02-09T23:28:30.000Z,101745.28
2023-02-09T23:30:57.010Z,101745.73
2023-02-09T23:33:23.886Z,101744.55
2023-02-09T23:35:50.944Z,101742.77
2023-02-09T23:38:20.311Z,101736.37
2023-02-09T23:40:47.356Z,101734.02
2023-02-09T23:43:14.308Z,101732.01
2023-02-09T23:45:41.227Z,101721.08
2023-02-09T23:48:08.175Z,101728.09
2023-02-09T23:50:35.158Z,101717.66
2023-02-09T23:53:02.212Z,101714.40
2023-02-09T23:55:29.096Z,101709.52
2023-02-09T23:57:55.908Z,101710.55
